Russellville, Arkansas
Current Conditions -  °F | °C
As of 9:53 AM on Sunday 23 Nov 2014 (Local Time) from KRUE Reporting Station
Light Rain Light Rain  
Wind Chill: 58°   Ceiling: 1300
Heat Index: 58°   Visibility: 6mi
Dew Point: 57°   Wind: 0mph
Humidity: 97%   Direction: NA
Pressure: 29.55"   Gusts: NA
Location:  35.28°N, 93.13°W
Report Text: KRUE 231553Z AUTO 00000KT 6SM -RA BR OVC013 14/14 A2955 RMK AO2 SLP000 P0001 T01440139
Loading
Personal Weather Stations






























Interactive Weather Map New forecast layout! Learn more

10-Day Weather Forecast

Advertisements
Track Severe Weather on mobile